Time;durP1;ratioP1;P1;durP2;ratioP2;P2;SDS_P1;SDS_P2;PMS_P1;PMS_P2;Temp;Humidity;BMP_temperature;BMP_pressure;BME280_temperature;BME280_humidity;BME280_pressure;Samples;Min_cycle;Max_cycle;Signal;HPM_P1;HPM_P2
2022/05/22 00:02:09;;;;;;;1.30;1.20;;;19.80;65.50;;;;;;5020595;28;20480;-79
2022/05/22 00:04:38;;;;;;;1.57;1.33;;;19.80;65.10;;;;;;5024671;28;20456;-80
2022/05/22 00:07:07;;;;;;;1.93;1.43;;;19.80;65.30;;;;;;5015766;28;20468;-79
2022/05/22 00:09:37;;;;;;;2.10;1.47;;;19.70;68.20;;;;;;5019852;28;20467;-79
2022/05/22 00:12:08;;;;;;;1.67;1.30;;;19.70;66.90;;;;;;5026821;28;20461;-79
2022/05/22 00:14:38;;;;;;;1.40;1.30;;;19.70;67.50;;;;;;5028489;28;20451;-79
2022/05/22 00:17:08;;;;;;;1.53;1.43;;;19.70;68.30;;;;;;5024821;28;20504;-80
2022/05/22 00:19:38;;;;;;;1.50;1.20;;;19.70;70.10;;;;;;5022891;28;20507;-80
2022/05/22 00:22:08;;;;;;;1.53;1.40;;;19.60;66.90;;;;;;5029001;28;20478;-80
2022/05/22 00:24:36;;;;;;;1.50;1.20;;;19.60;69.50;;;;;;5021549;28;20515;-81
2022/05/22 00:27:05;;;;;;;1.40;1.30;;;19.60;71.10;;;;;;5026329;28;20476;-79
2022/05/22 00:29:33;;;;;;;2.87;1.27;;;19.60;68.80;;;;;;5023385;28;20540;-79
2022/05/22 00:32:04;;;;;;;1.33;1.23;;;19.50;69.10;;;;;;5019858;28;20458;-79
2022/05/22 00:34:32;;;;;;;2.13;1.60;;;19.50;65.80;;;;;;5023394;28;20456;-79
2022/05/22 00:37:00;;;;;;;1.70;1.20;;;19.50;68.20;;;;;;5025089;28;20512;-79
2022/05/22 00:39:29;;;;;;;1.20;1.10;;;19.40;67.90;;;;;;5025557;28;20468;-81
2022/05/22 00:41:58;;;;;;;3.40;1.50;;;19.40;67.50;;;;;;5026098;28;20848;-80
2022/05/22 00:44:27;;;;;;;3.43;1.50;;;19.30;66.20;;;;;;5028583;28;20460;-80
2022/05/22 00:46:56;;;;;;;1.40;1.30;;;19.30;68.70;;;;;;5016816;28;20546;-80
2022/05/22 00:49:29;;;;;;;2.50;1.30;;;19.30;69.30;;;;;;5021455;28;20517;-81
2022/05/22 00:52:03;;;;;;;1.40;1.30;;;19.30;68.20;;;;;;5022379;28;20470;-80
2022/05/22 00:54:40;;;;;;;1.30;1.20;;;19.30;69.30;;;;;;5019223;28;20460;-79
2022/05/22 00:57:12;;;;;;;1.50;1.27;;;19.30;69.90;;;;;;5024187;28;20464;-80
2022/05/22 00:59:45;;;;;;;1.60;1.30;;;19.20;70.00;;;;;;5015523;28;20449;-80
2022/05/22 01:02:15;;;;;;;1.60;1.20;;;19.30;66.80;;;;;;5019124;28;20562;-80
2022/05/22 01:04:48;;;;;;;1.13;1.10;;;19.30;68.10;;;;;;5027429;28;20453;-80
2022/05/22 01:07:17;;;;;;;2.33;1.23;;;19.20;68.70;;;;;;5020761;28;20483;-79
2022/05/22 01:09:47;;;;;;;1.77;1.67;;;19.20;68.10;;;;;;5037076;28;20478;-79
2022/05/22 01:12:19;;;;;;;1.30;1.20;;;19.20;68.90;;;;;;5028320;28;20836;-79
2022/05/22 01:14:49;;;;;;;1.30;1.20;;;19.10;67.70;;;;;;5033074;28;20467;-78
2022/05/22 01:17:18;;;;;;;3.87;2.07;;;19.10;68.40;;;;;;5026358;28;20487;-79
2022/05/22 01:19:59;;;;;;;1.83;1.40;;;19.10;69.60;;;;;;5019505;28;20464;-79
2022/05/22 01:22:29;;;;;;;1.57;1.47;;;19.00;67.60;;;;;;5029070;28;20488;-79
2022/05/22 01:24:58;;;;;;;1.47;1.37;;;19.00;70.50;;;;;;5027413;28;20452;-79
2022/05/22 01:27:27;;;;;;;1.13;1.13;;;19.00;67.50;;;;;;5029767;28;20471;-79
2022/05/22 01:30:09;;;;;;;1.47;1.37;;;19.00;69.30;;;;;;5033536;28;20963;-79
2022/05/22 01:32:38;;;;;;;1.37;1.27;;;19.00;69.60;;;;;;5024800;28;20466;-79
2022/05/22 01:35:09;;;;;;;1.30;1.00;;;19.00;69.70;;;;;;5021488;28;20460;-79
2022/05/22 01:37:38;;;;;;;3.67;1.50;;;18.90;86.00;;;;;;5027140;28;20473;-79
2022/05/22 01:40:09;;;;;;;2.20;1.40;;;18.90;71.40;;;;;;5018843;28;20464;-79
2022/05/22 01:42:38;;;;;;;1.43;1.20;;;18.80;70.10;;;;;;5017836;28;21012;-79
2022/05/22 01:45:08;;;;;;;1.83;1.73;;;18.80;69.60;;;;;;5011634;28;20561;-79
2022/05/22 01:47:38;;;;;;;2.80;1.20;;;18.90;72.00;;;;;;5025691;28;20483;-79
2022/05/22 01:50:08;;;;;;;1.60;1.50;;;18.80;70.20;;;;;;5036636;28;20832;-80
2022/05/22 01:52:39;;;;;;;1.60;1.50;;;18.80;70.50;;;;;;5022733;28;20497;-79
2022/05/22 01:55:09;;;;;;;2.80;1.23;;;18.80;70.90;;;;;;5025834;28;20871;-79
2022/05/22 01:57:38;;;;;;;2.03;1.30;;;18.70;70.20;;;;;;5028487;28;20495;-79
2022/05/22 02:00:10;;;;;;;1.93;1.70;;;18.80;71.90;;;;;;5020556;28;20945;-80
2022/05/22 02:02:39;;;;;;;1.97;1.20;;;18.70;71.70;;;;;;5027709;28;21206;-79
2022/05/22 02:05:08;;;;;;;1.30;1.20;;;18.70;72.90;;;;;;5028373;28;20492;-79
2022/05/22 02:10:24;;;;;;;2.30;1.33;;;18.70;72.60;;;;;;5032334;28;20470;-80
2022/05/22 02:12:53;;;;;;;1.30;1.20;;;18.60;72.50;;;;;;5029995;28;20444;-78
2022/05/22 02:15:22;;;;;;;2.10;1.10;;;18.70;72.00;;;;;;5026919;28;20500;-79
2022/05/22 02:17:51;;;;;;;1.60;1.33;;;18.70;72.80;;;;;;5018627;28;20492;-79
2022/05/22 02:20:20;;;;;;;1.87;1.30;;;18.70;72.20;;;;;;5013557;28;20469;-79
2022/05/22 02:22:54;;;;;;;1.60;1.40;;;18.70;73.80;;;;;;5014218;28;20818;-79
2022/05/22 02:25:25;;;;;;;1.70;1.30;;;18.60;73.30;;;;;;5016057;28;20449;-81
2022/05/22 02:27:53;;;;;;;1.40;1.30;;;18.60;72.00;;;;;;5015538;28;20473;-79
2022/05/22 02:30:25;;;;;;;1.80;1.43;;;18.60;72.90;;;;;;5017320;28;20467;-80
2022/05/22 02:32:53;;;;;;;1.83;1.33;;;18.60;73.10;;;;;;5013764;28;20981;-81
2022/05/22 02:35:22;;;;;;;2.10;1.40;;;18.60;74.90;;;;;;5015667;28;20456;-79
2022/05/22 02:37:54;;;;;;;2.40;1.37;;;18.60;72.80;;;;;;5017646;28;20500;-79
2022/05/22 02:40:27;;;;;;;1.60;1.50;;;18.50;73.30;;;;;;5013211;28;20452;-80
2022/05/22 02:42:55;;;;;;;2.80;1.23;;;18.60;75.30;;;;;;5023895;28;20451;-80
2022/05/22 02:45:27;;;;;;;1.90;1.30;;;18.60;76.50;;;;;;5013186;28;20453;-81
2022/05/22 02:47:55;;;;;;;2.80;1.37;;;18.50;74.60;;;;;;5018875;28;20511;-80
2022/05/22 02:50:26;;;;;;;1.50;1.40;;;18.50;75.50;;;;;;5016585;28;20463;-80
2022/05/22 02:52:55;;;;;;;1.87;1.20;;;18.50;74.80;;;;;;5017472;28;20953;-80
2022/05/22 02:55:24;;;;;;;1.37;1.27;;;18.50;74.40;;;;;;5014001;28;20496;-79
2022/05/22 02:57:52;;;;;;;1.30;1.20;;;18.40;74.70;;;;;;5014691;28;22591;-80
2022/05/22 03:00:23;;;;;;;1.43;1.33;;;18.30;72.80;;;;;;5011517;28;20464;-80
2022/05/22 03:02:52;;;;;;;1.53;1.20;;;18.30;72.20;;;;;;5014936;28;20534;-80
2022/05/22 03:05:21;;;;;;;1.57;1.43;;;18.30;72.60;;;;;;5017225;28;20491;-80
2022/05/22 03:07:49;;;;;;;3.00;1.37;;;18.30;72.20;;;;;;5013320;28;20977;-79
2022/05/22 03:10:19;;;;;;;1.50;1.40;;;18.30;73.70;;;;;;5017373;28;20457;-79
2022/05/22 03:12:47;;;;;;;1.20;1.10;;;18.20;73.90;;;;;;5020108;28;20464;-80
2022/05/22 03:15:16;;;;;;;1.40;1.30;;;18.10;74.10;;;;;;5023722;28;20484;-80
2022/05/22 03:17:44;;;;;;;1.30;1.20;;;18.10;91.40;;;;;;5018512;28;20487;-80
2022/05/22 03:20:13;;;;;;;1.33;1.23;;;18.10;73.70;;;;;;5023104;28;20461;-80
2022/05/22 03:22:41;;;;;;;3.87;1.50;;;18.10;72.30;;;;;;5016418;28;20994;-79
2022/05/22 03:25:10;;;;;;;1.40;1.30;;;18.10;76.30;;;;;;5014210;28;20494;-80
2022/05/22 03:27:43;;;;;;;1.30;1.20;;;18.10;74.40;;;;;;5016477;28;20512;-79
2022/05/22 03:30:12;;;;;;;1.50;1.40;;;18.10;75.80;;;;;;5016797;28;20455;-79
2022/05/22 03:32:40;;;;;;;1.70;1.60;;;18.10;74.70;;;;;;5016728;28;20453;-80
2022/05/22 03:35:09;;;;;;;2.70;1.27;;;18.10;75.50;;;;;;5018050;28;20998;-80
2022/05/22 03:37:38;;;;;;;1.73;1.13;;;18.10;74.20;;;;;;5022074;28;20468;-79
2022/05/22 03:40:08;;;;;;;1.80;1.60;;;18.00;76.00;;;;;;5016550;28;20458;-79
2022/05/22 03:42:37;;;;;;;1.47;1.23;;;18.10;74.80;;;;;;5021292;28;20467;-79
2022/05/22 03:45:08;;;;;;;2.27;1.03;;;18.00;75.60;;;;;;5016879;28;20484;-78
2022/05/22 03:47:38;;;;;;;1.50;1.20;;;18.00;73.90;;;;;;5011823;28;20489;-79
2022/05/22 03:50:08;;;;;;;1.07;1.03;;;17.90;74.20;;;;;;5017293;28;20826;-79
2022/05/22 03:52:40;;;;;;;1.37;1.27;;;17.90;74.60;;;;;;5013405;28;21146;-79
2022/05/22 03:55:11;;;;;;;2.10;1.57;;;17.90;73.60;;;;;;5021152;28;20507;-79
2022/05/22 03:57:40;;;;;;;5.30;1.33;;;17.90;74.50;;;;;;5017152;28;20488;-79
2022/05/22 04:00:12;;;;;;;1.23;1.10;;;17.80;75.10;;;;;;5014068;28;20445;-79
2022/05/22 04:02:40;;;;;;;1.30;1.20;;;17.90;76.00;;;;;;5013288;28;20448;-80
2022/05/22 04:05:10;;;;;;;1.20;1.10;;;17.80;76.20;;;;;;5015544;28;20476;-79
2022/05/22 04:07:39;;;;;;;1.70;1.20;;;17.80;75.90;;;;;;5018135;28;20473;-79
2022/05/22 04:10:09;;;;;;;1.30;1.20;;;17.90;78.30;;;;;;5014490;28;20459;-79
2022/05/22 04:12:38;;;;;;;1.70;1.43;;;17.90;80.80;;;;;;5022190;28;20457;-79
2022/05/22 04:15:11;;;;;;;1.90;1.80;;;17.90;79.00;;;;;;5030068;28;20468;-79
2022/05/22 04:17:40;;;;;;;1.50;1.40;;;17.90;79.20;;;;;;5011400;28;20587;-79
2022/05/22 04:20:09;;;;;;;4.00;1.40;;;17.80;80.50;;;;;;5011035;28;20456;-80
2022/05/22 04:25:11;;;;;;;2.20;1.47;;;17.80;79.20;;;;;;5015363;28;20456;-81
2022/05/22 04:25:25;;;;;;;2.90;1.67;;;17.80;81.90;;;;;;5014872;28;20488;-81
2022/05/22 04:27:53;;;;;;;3.13;1.27;;;17.80;83.20;;;;;;5015386;28;20562;-81
2022/05/22 04:30:24;;;;;;;1.27;1.17;;;17.80;82.00;;;;;;5016760;28;20456;-80
2022/05/22 04:32:53;;;;;;;1.70;1.60;;;17.80;83.80;;;;;;5016060;28;20452;-80
2022/05/22 04:35:23;;;;;;;1.20;1.20;;;17.80;83.10;;;;;;5019583;28;20460;-80
2022/05/22 04:37:51;;;;;;;3.03;1.40;;;17.80;84.60;;;;;;5018980;28;20921;-80
2022/05/22 04:40:20;;;;;;;2.30;1.90;;;17.80;87.60;;;;;;5016556;28;20465;-80
2022/05/22 04:42:48;;;;;;;1.40;1.30;;;17.90;87.40;;;;;;5016622;28;20898;-80
2022/05/22 04:45:17;;;;;;;1.33;1.10;;;18.00;88.40;;;;;;5014486;28;20481;-80
2022/05/22 04:47:46;;;;;;;2.20;1.23;;;18.00;90.00;;;;;;5014790;28;20571;-79
2022/05/22 04:50:17;;;;;;;1.90;1.33;;;18.10;89.50;;;;;;5018147;28;20457;-80
2022/05/22 04:52:45;;;;;;;2.10;1.70;;;18.10;87.80;;;;;;5018590;28;22133;-79
2022/05/22 04:55:19;;;;;;;2.17;1.50;;;18.10;89.70;;;;;;5010816;28;20547;-79
2022/05/22 04:57:48;;;;;;;2.23;1.30;;;18.10;88.70;;;;;;5010060;28;20477;-79
2022/05/22 05:00:17;;;;;;;1.97;1.20;;;18.20;89.00;;;;;;5026677;28;20461;-80
2022/05/22 05:02:47;;;;;;;1.77;1.40;;;18.20;88.20;;;;;;5017168;28;20527;-79
2022/05/22 05:05:15;;;;;;;3.13;1.20;;;18.30;90.40;;;;;;5018730;28;20484;-80
2022/05/22 05:07:44;;;;;;;1.77;1.50;;;18.30;89.60;;;;;;5022713;28;20541;-80
2022/05/22 05:10:13;;;;;;;1.83;1.20;;;18.30;89.00;;;;;;5018076;28;20547;-79
2022/05/22 05:12:43;;;;;;;3.50;1.90;;;18.40;90.20;;;;;;5020267;28;20464;-79
2022/05/22 05:15:14;;;;;;;1.20;1.10;;;18.40;89.30;;;;;;5015697;28;20456;-79
2022/05/22 05:17:43;;;;;;;2.83;1.40;;;18.50;89.90;;;;;;5019434;28;20472;-79
2022/05/22 05:20:16;;;;;;;1.50;1.13;;;18.50;90.50;;;;;;5011808;28;21065;-79
2022/05/22 05:22:44;;;;;;;4.13;1.57;;;18.50;92.60;;;;;;5016683;28;20488;-79
2022/05/22 05:25:14;;;;;;;1.37;1.27;;;18.60;93.30;;;;;;5015780;28;20484;-79
2022/05/22 05:27:43;;;;;;;1.40;1.30;;;18.50;93.20;;;;;;5020161;28;20836;-79
2022/05/22 05:30:13;;;;;;;1.63;1.20;;;18.50;93.90;;;;;;5019151;28;20453;-79
2022/05/22 05:32:41;;;;;;;1.50;1.40;;;18.60;92.90;;;;;;5017259;28;20452;-79
2022/05/22 05:35:11;;;;;;;1.97;1.30;;;18.60;94.70;;;;;;5013861;28;20452;-78
2022/05/22 05:37:41;;;;;;;1.63;1.53;;;18.60;95.50;;;;;;5023136;28;20500;-79
2022/05/22 05:40:10;;;;;;;1.60;1.50;;;18.60;96.20;;;;;;5019766;28;20959;-78
2022/05/22 05:42:39;;;;;;;2.87;1.30;;;18.60;95.50;;;;;;5022071;28;20488;-78
2022/05/22 05:45:10;;;;;;;1.97;1.70;;;18.70;96.60;;;;;;5015429;28;20476;-78
2022/05/22 05:47:39;;;;;;;2.37;1.40;;;18.60;94.80;;;;;;5020569;28;20742;-78
2022/05/22 05:50:09;;;;;;;1.47;1.37;;;18.70;95.00;;;;;;5015074;28;20892;-79
2022/05/22 05:52:37;;;;;;;2.40;1.40;;;18.70;95.10;;;;;;5019317;28;20464;-78
2022/05/22 05:55:08;;;;;;;1.40;1.30;;;18.80;95.20;;;;;;5018186;28;20441;-74
2022/05/22 05:57:37;;;;;;;1.47;1.30;;;18.80;94.40;;;;;;5016474;28;20796;-74
2022/05/22 06:00:07;;;;;;;2.60;1.10;;;18.90;94.50;;;;;;5021264;28;20456;-74
2022/05/22 06:02:36;;;;;;;1.20;1.10;;;19.00;94.30;;;;;;5017433;28;20460;-74
2022/05/22 06:05:06;;;;;;;1.40;1.30;;;18.90;94.00;;;;;;5022107;28;20479;-74
2022/05/22 06:07:34;;;;;;;1.50;1.40;;;18.80;93.50;;;;;;5016410;28;21023;-74
2022/05/22 06:10:03;;;;;;;1.87;1.30;;;18.90;95.10;;;;;;5020351;28;20463;-74
2022/05/22 06:12:33;;;;;;;0.80;0.80;;;19.00;94.70;;;;;;5015824;28;20453;-74
2022/05/22 06:15:02;;;;;;;1.03;0.93;;;18.90;94.50;;;;;;5022911;28;21028;-74
2022/05/22 06:17:32;;;;;;;1.93;1.23;;;18.90;93.40;;;;;;5018651;28;20480;-73
2022/05/22 06:20:00;;;;;;;1.03;1.00;;;18.90;93.20;;;;;;5018384;28;20461;-74
2022/05/22 06:22:34;;;;;;;1.80;1.07;;;18.90;94.00;;;;;;5016887;28;20462;-74
2022/05/22 06:25:05;;;;;;;1.10;1.00;;;19.10;96.10;;;;;;5020773;28;20488;-73
2022/05/22 06:27:35;;;;;;;1.27;1.10;;;19.20;96.30;;;;;;5031700;28;20477;-75
2022/05/22 06:30:05;;;;;;;1.10;1.00;;;19.20;96.30;;;;;;5026799;28;20884;-74
2022/05/22 06:32:34;;;;;;;0.90;0.90;;;19.40;97.60;;;;;;5017202;28;20439;-74
2022/05/22 06:35:03;;;;;;;1.13;1.03;;;19.60;98.50;;;;;;5017835;28;20452;-75
2022/05/22 06:37:31;;;;;;;1.23;0.90;;;19.80;99.90;;;;;;5016750;28;20539;-74
2022/05/22 06:40:05;;;;;;;1.47;1.00;;;19.90;99.90;;;;;;5028038;28;20456;-73
2022/05/22 06:42:37;;;;;;;3.07;1.30;;;20.10;99.90;;;;;;5022417;28;20461;-73
2022/05/22 06:45:09;;;;;;;3.00;1.03;;;20.20;99.90;;;;;;5022477;28;20487;-73
2022/05/22 06:47:38;;;;;;;1.30;1.20;;;20.30;99.60;;;;;;5013373;28;20488;-73
2022/05/22 06:50:09;;;;;;;1.17;1.00;;;20.50;99.90;;;;;;5018006;28;20461;-74
2022/05/22 06:52:38;;;;;;;1.00;0.90;;;20.70;99.90;;;;;;5020005;28;21014;-75
2022/05/22 06:55:08;;;;;;;1.63;1.00;;;20.80;99.90;;;;;;5016398;28;20822;-74
2022/05/22 06:57:38;;;;;;;1.03;0.97;;;20.90;99.90;;;;;;5017576;28;20476;-74
2022/05/22 07:00:09;;;;;;;0.83;0.83;;;21.10;99.90;;;;;;5016313;28;20462;-76
2022/05/22 07:02:39;;;;;;;1.10;1.10;;;21.10;99.90;;;;;;5015038;28;20456;-77
2022/05/22 07:05:09;;;;;;;1.03;1.00;;;21.20;99.90;;;;;;5018120;28;20491;-77
2022/05/22 07:07:37;;;;;;;2.73;1.47;;;21.20;99.90;;;;;;5020690;28;21003;-77
2022/05/22 07:10:06;;;;;;;2.23;1.27;;;21.30;99.90;;;;;;5024014;28;20468;-76
2022/05/22 07:12:34;;;;;;;1.47;1.20;;;21.40;99.90;;;;;;5021891;28;20552;-77
2022/05/22 07:15:06;;;;;;;1.90;1.10;;;21.40;99.90;;;;;;5024120;28;20466;-74
2022/05/22 07:17:34;;;;;;;1.87;0.87;;;21.50;99.90;;;;;;5018495;28;20490;-77
2022/05/22 07:20:02;;;;;;;1.57;1.00;;;21.50;99.90;;;;;;5021012;28;20459;-77
2022/05/22 07:22:31;;;;;;;2.00;0.90;;;21.50;99.90;;;;;;5020187;28;20467;-78
2022/05/22 07:24:59;;;;;;;1.13;0.90;;;21.50;99.90;;;;;;5020181;28;20494;-77
2022/05/22 07:27:27;;;;;;;1.03;0.87;;;21.50;99.90;;;;;;5020139;28;20508;-77
2022/05/22 07:29:57;;;;;;;1.77;1.67;;;21.60;99.90;;;;;;5020212;28;20466;-77
2022/05/22 07:32:27;;;;;;;1.70;0.93;;;21.70;99.90;;;;;;5023902;28;20492;-77
2022/05/22 07:34:56;;;;;;;1.50;0.90;;;21.70;99.90;;;;;;5020561;28;20500;-77
2022/05/22 07:37:25;;;;;;;1.30;1.07;;;21.70;99.90;;;;;;5019346;28;20472;-77
2022/05/22 07:39:53;;;;;;;1.10;1.00;;;21.80;99.90;;;;;;5019278;28;20491;-77
2022/05/22 07:42:22;;;;;;;0.90;0.90;;;21.90;99.90;;;;;;5019585;28;20474;-77
2022/05/22 07:44:50;;;;;;;1.00;1.00;;;21.90;99.90;;;;;;5019417;28;21030;-77
2022/05/22 07:47:18;;;;;;;1.40;1.10;;;22.00;99.90;;;;;;5011032;28;20999;-77
2022/05/22 07:52:33;;;;;;;1.23;1.00;;;22.00;99.90;;;;;;5016881;28;20459;-77
2022/05/22 07:55:02;;;;;;;1.20;1.10;;;22.00;99.90;;;;;;5025435;28;20445;-77
2022/05/22 07:57:32;;;;;;;1.23;0.87;;;22.10;99.90;;;;;;5012529;28;20508;-75
2022/05/22 08:00:08;;;;;;;1.43;0.80;;;22.20;99.90;;;;;;5017372;28;20504;-74
2022/05/22 08:02:36;;;;;;;3.17;1.00;;;22.20;99.90;;;;;;5022548;28;20441;-74
2022/05/22 08:05:08;;;;;;;1.17;0.70;;;22.30;99.90;;;;;;5016320;28;20480;-74
2022/05/22 08:07:37;;;;;;;1.33;0.70;;;22.30;98.90;;;;;;5017646;28;20488;-74
2022/05/22 08:10:07;;;;;;;1.47;0.90;;;22.20;97.20;;;;;;5020499;28;20458;-74
2022/05/22 08:12:37;;;;;;;1.03;0.93;;;22.20;96.60;;;;;;5020787;28;20823;-74
2022/05/22 08:15:07;;;;;;;1.03;0.90;;;22.20;95.90;;;;;;5015542;28;20542;-74
2022/05/22 08:17:36;;;;;;;0.80;0.80;;;22.20;95.30;;;;;;5019821;28;20484;-74
2022/05/22 08:20:09;;;;;;;0.70;0.70;;;22.20;93.90;;;;;;5020265;28;20452;-74
2022/05/22 08:22:37;;;;;;;0.90;0.90;;;22.20;94.00;;;;;;5018764;28;20461;-74
2022/05/22 08:25:07;;;;;;;0.93;0.90;;;22.10;93.40;;;;;;5017574;28;20455;-73
2022/05/22 08:27:35;;;;;;;0.90;0.73;;;22.10;93.10;;;;;;5012089;28;20492;-74
2022/05/22 08:30:04;;;;;;;2.83;0.70;;;22.10;93.40;;;;;;5011569;28;20567;-75
2022/05/22 08:32:32;;;;;;;0.80;0.80;;;22.30;94.30;;;;;;5015778;28;20466;-74
2022/05/22 08:35:01;;;;;;;1.00;0.80;;;22.30;94.40;;;;;;5012533;28;20570;-73
2022/05/22 08:37:30;;;;;;;0.70;0.70;;;22.40;99.90;;;;;;5019502;28;20472;-73
2022/05/22 08:39:59;;;;;;;0.97;0.80;;;22.40;95.00;;;;;;5018341;28;21025;-73
2022/05/22 08:42:41;;;;;;;0.70;0.70;;;22.50;94.00;;;;;;5024339;28;20475;-74
2022/05/22 08:45:16;;;;;;;0.70;0.70;;;22.50;93.00;;;;;;5017139;28;20999;-74
2022/05/22 08:47:55;;;;;;;0.70;0.70;;;22.60;93.70;;;;;;5021869;28;20483;-75
2022/05/22 08:50:24;;;;;;;1.80;0.70;;;22.70;95.40;;;;;;5012589;28;20468;-73
2022/05/22 08:52:57;;;;;;;1.43;0.70;;;22.70;94.00;;;;;;5017312;28;20460;-73
2022/05/22 08:58:56;;;;;;;0.60;0.60;;;22.70;93.90;;;;;;5022107;28;20459;-74
2022/05/22 09:01:09;;;;;;;0.60;0.60;;;22.90;94.20;;;;;;5020720;28;20464;-73
2022/05/22 09:03:41;;;;;;;0.70;0.70;;;23.00;99.90;;;;;;5016944;28;21023;-75
2022/05/22 09:06:10;;;;;;;0.70;0.70;;;23.00;94.00;;;;;;5022211;28;20460;-74
2022/05/22 09:08:42;;;;;;;0.60;0.60;;;23.10;94.20;;;;;;5015663;28;20492;-74
2022/05/22 09:11:21;;;;;;;0.70;0.70;;;23.10;96.40;;;;;;5015771;28;20472;-74
2022/05/22 09:13:55;;;;;;;1.33;0.90;;;23.20;95.20;;;;;;5023488;28;20456;-74
2022/05/22 09:16:29;;;;;;;0.70;0.70;;;23.30;95.00;;;;;;5016135;28;20465;-75
2022/05/22 09:19:04;;;;;;;0.90;0.80;;;23.30;97.50;;;;;;5020719;28;20468;-74
2022/05/22 09:21:38;;;;;;;0.90;0.70;;;23.40;94.50;;;;;;5020616;28;20488;-74
2022/05/22 09:24:15;;;;;;;1.90;0.70;;;23.50;94.90;;;;;;5022090;28;20538;-73
2022/05/22 09:26:53;;;;;;;0.77;0.77;;;23.50;93.10;;;;;;5018919;28;20464;-74
2022/05/22 09:29:40;;;;;;;0.60;0.60;;;23.50;93.80;;;;;;5009745;28;20476;-74
2022/05/22 09:32:18;;;;;;;2.30;0.60;;;23.50;93.50;;;;;;5014357;28;20444;-74
2022/05/22 09:34:56;;;;;;;0.63;0.60;;;23.60;93.00;;;;;;5016893;28;20468;-74
2022/05/22 09:37:33;;;;;;;1.60;0.70;;;23.60;92.80;;;;;;5019141;28;20476;-77
2022/05/22 09:40:20;;;;;;;0.60;0.60;;;23.60;90.00;;;;;;5024542;28;20545;-76
2022/05/22 09:43:16;;;;;;;2.13;0.60;;;23.50;90.20;;;;;;5019089;28;20952;-76
2022/05/22 09:45:58;;;;;;;0.93;0.63;;;23.60;90.70;;;;;;5021249;28;20469;-77
2022/05/22 09:48:44;;;;;;;1.33;0.60;;;23.50;88.00;;;;;;5027652;28;20475;-77
2022/05/22 09:51:17;;;;;;;0.60;0.60;;;23.50;86.90;;;;;;5017965;28;20467;-77
2022/05/22 09:53:58;;;;;;;1.60;0.70;;;23.50;85.70;;;;;;5013040;28;20469;-78
2022/05/22 09:56:58;;;;;;;0.53;0.53;;;23.50;84.40;;;;;;5025090;28;20453;-77
2022/05/22 09:59:42;;;;;;;0.80;0.80;;;23.60;85.60;;;;;;5018559;28;20993;-78
2022/05/22 10:02:17;;;;;;;1.00;0.50;;;23.60;85.80;;;;;;5027233;28;21034;-77
2022/05/22 10:04:55;;;;;;;0.57;0.57;;;23.70;88.00;;;;;;5023139;28;20463;-78
2022/05/22 10:07:32;;;;;;;0.80;0.80;;;23.70;90.00;;;;;;5018619;28;20488;-78
2022/05/22 10:10:11;;;;;;;0.90;0.80;;;23.80;90.30;;;;;;5016691;28;20468;-77
2022/05/22 10:12:49;;;;;;;0.70;0.70;;;23.90;90.20;;;;;;5024358;28;20456;-78
2022/05/22 10:15:39;;;;;;;1.30;0.60;;;24.00;90.00;;;;;;5023820;28;22128;-78
2022/05/22 10:18:21;;;;;;;2.63;1.17;;;24.00;86.70;;;;;;5033878;28;20464;-78
2022/05/22 10:20:57;;;;;;;1.13;0.97;;;23.90;84.40;;;;;;5029252;28;20455;-77
2022/05/22 10:23:38;;;;;;;0.90;0.77;;;23.90;96.00;;;;;;5021219;28;20459;-76
2022/05/22 10:26:17;;;;;;;0.70;0.70;;;24.00;88.00;;;;;;5022891;28;20461;-77
2022/05/22 10:28:51;;;;;;;0.70;0.70;;;24.00;88.10;;;;;;5019999;28;20488;-76
2022/05/22 10:31:24;;;;;;;1.10;0.60;;;24.10;87.90;;;;;;5018704;28;20465;-78
2022/05/22 10:33:58;;;;;;;2.10;0.77;;;24.20;90.20;;;;;;5019324;28;20453;-78
2022/05/22 10:36:31;;;;;;;0.63;0.63;;;24.20;91.10;;;;;;5012194;28;20534;-79
2022/05/22 10:39:04;;;;;;;0.90;0.70;;;24.30;90.70;;;;;;5018152;28;20496;-76
2022/05/22 10:44:29;;;;;;;0.90;0.80;;;24.40;99.90;;;;;;5023437;28;20461;-77
2022/05/22 10:47:02;;;;;;;0.70;0.70;;;24.40;92.00;;;;;;5015689;28;20487;-77
2022/05/22 10:49:40;;;;;;;0.70;0.70;;;24.40;93.20;;;;;;5018616;28;20472;-77
2022/05/22 10:52:11;;;;;;;0.70;0.70;;;24.60;91.90;;;;;;5020613;28;20461;-75
2022/05/22 10:54:47;;;;;;;1.07;0.60;;;24.50;98.80;;;;;;5020834;28;20967;-77
2022/05/22 10:57:17;;;;;;;0.83;0.57;;;24.50;90.40;;;;;;5020643;28;20498;-76
2022/05/22 10:59:47;;;;;;;0.93;0.70;;;24.50;89.40;;;;;;5019053;28;20472;-80
2022/05/22 11:02:20;;;;;;;0.90;0.70;;;24.60;91.50;;;;;;5018741;28;20448;-81
2022/05/22 11:04:49;;;;;;;0.90;0.70;;;24.70;91.70;;;;;;5022123;28;20457;-80
2022/05/22 11:07:29;;;;;;;0.97;0.73;;;24.70;91.70;;;;;;5022591;28;20471;-80
2022/05/22 11:10:07;;;;;;;1.20;1.13;;;24.50;85.80;;;;;;5012927;28;21018;-80
2022/05/22 11:12:35;;;;;;;3.93;1.00;;;24.50;84.60;;;;;;5018275;28;20451;-79
2022/05/22 11:15:14;;;;;;;0.80;0.70;;;24.50;86.40;;;;;;5016266;28;21016;-80
2022/05/22 11:17:43;;;;;;;0.80;0.70;;;24.60;86.40;;;;;;5019331;28;20514;-79
2022/05/22 11:20:16;;;;;;;0.60;0.60;;;24.60;88.10;;;;;;5023486;28;20461;-80
2022/05/22 11:22:59;;;;;;;1.00;0.77;;;24.70;90.90;;;;;;5031139;28;20451;-80
2022/05/22 11:25:34;;;;;;;1.17;0.83;;;24.70;92.10;;;;;;5031878;28;20468;-80
2022/05/22 11:28:20;;;;;;;2.00;0.80;;;24.80;93.00;;;;;;5022663;28;20492;-81
2022/05/22 11:30:56;;;;;;;1.10;0.80;;;24.80;93.40;;;;;;5028793;28;20465;-80
2022/05/22 11:33:39;;;;;;;1.27;0.70;;;24.90;94.20;;;;;;5024883;28;20451;-80
2022/05/22 11:36:17;;;;;;;0.87;0.87;;;24.90;95.40;;;;;;5033096;28;20839;-81
2022/05/22 11:38:55;;;;;;;0.80;0.70;;;24.90;95.80;;;;;;5025655;28;20482;-79
2022/05/22 11:41:29;;;;;;;1.13;0.70;;;25.00;95.20;;;;;;5027222;28;21259;-78
2022/05/22 11:44:39;;;;;;;0.77;0.70;;;25.00;94.90;;;;;;5020292;28;20456;-78
2022/05/22 11:47:26;;;;;;;0.70;0.70;;;25.00;92.60;;;;;;5017504;28;20479;-79
2022/05/22 11:50:06;;;;;;;2.00;0.60;;;25.00;90.70;;;;;;5016288;28;20481;-80
2022/05/22 11:52:56;;;;;;;0.83;0.73;;;25.00;91.90;;;;;;5020283;28;20461;-79
2022/05/22 11:55:35;;;;;;;1.03;0.70;;;25.10;92.20;;;;;;5021254;28;20810;-79
2022/05/22 11:58:21;;;;;;;1.43;0.70;;;25.10;91.70;;;;;;5028084;28;20479;-80
2022/05/22 12:00:59;;;;;;;0.70;0.70;;;25.20;92.20;;;;;;5019891;28;20456;-79
2022/05/22 12:03:51;;;;;;;0.67;0.60;;;25.20;93.20;;;;;;5020396;28;20462;-82
2022/05/22 12:06:37;;;;;;;0.60;0.60;;;25.20;91.10;;;;;;5023860;28;20464;-80
2022/05/22 12:09:15;;;;;;;2.50;0.70;;;25.20;98.60;;;;;;5029850;28;20490;-80
2022/05/22 12:11:54;;;;;;;0.83;0.80;;;25.20;90.00;;;;;;5028492;28;20490;-79
2022/05/22 12:14:31;;;;;;;1.03;0.77;;;25.20;88.00;;;;;;5035043;28;20462;-79
2022/05/22 12:17:05;;;;;;;0.70;0.70;;;25.10;84.60;;;;;;5028014;28;20534;-79
2022/05/22 12:19:43;;;;;;;0.80;0.80;;;25.10;87.70;;;;;;5027480;28;20456;-79
2022/05/22 12:23:07;;;;;;;1.07;0.60;;;25.20;88.70;;;;;;5025079;28;20467;-80
2022/05/22 12:25:17;;;;;;;0.73;0.73;;;25.20;90.40;;;;;;5027233;28;20445;-81
2022/05/22 12:27:46;;;;;;;0.80;0.80;;;25.30;90.80;;;;;;5027447;28;20481;-81
2022/05/22 12:30:22;;;;;;;0.77;0.77;;;25.30;90.40;;;;;;5028357;28;21093;-81
2022/05/22 12:32:55;;;;;;;0.70;0.70;;;25.30;89.70;;;;;;5027009;28;20959;-80
2022/05/22 12:35:27;;;;;;;0.60;0.60;;;25.40;94.30;;;;;;5025451;28;21235;-79
2022/05/22 12:37:59;;;;;;;0.80;0.80;;;25.50;94.20;;;;;;5021639;28;20495;-81
2022/05/22 12:40:43;;;;;;;0.97;0.80;;;25.50;95.50;;;;;;5016016;28;20472;-80
2022/05/22 12:43:16;;;;;;;0.77;0.77;;;25.50;96.10;;;;;;5028401;28;20465;-81
2022/05/22 12:45:51;;;;;;;0.70;0.70;;;25.50;96.70;;;;;;5021973;28;20463;-81
2022/05/22 12:48:26;;;;;;;0.73;0.70;;;25.50;97.80;;;;;;5036742;28;21277;-79
2022/05/22 12:51:12;;;;;;;0.80;0.80;;;25.50;98.20;;;;;;5017085;28;20835;-81
2022/05/22 12:53:43;;;;;;;0.60;0.60;;;25.60;98.20;;;;;;5024865;28;20555;-79
2022/05/22 12:56:22;;;;;;;0.80;0.80;;;25.70;99.20;;;;;;5029434;28;20452;-80
2022/05/22 12:58:54;;;;;;;0.70;0.70;;;25.60;98.60;;;;;;5023024;28;20465;-83
2022/05/22 13:01:30;;;;;;;1.00;0.90;;;25.70;99.10;;;;;;5027291;28;20456;-80
2022/05/22 13:04:01;;;;;;;1.20;0.90;;;25.70;98.00;;;;;;5028587;28;20463;-80
2022/05/22 13:06:35;;;;;;;1.00;0.77;;;25.70;99.00;;;;;;5015803;28;20535;-81
2022/05/22 13:09:06;;;;;;;0.93;0.70;;;25.70;98.10;;;;;;5031151;28;20475;-81
2022/05/22 13:11:45;;;;;;;1.43;0.90;;;25.70;99.30;;;;;;5031434;28;20464;-81
2022/05/22 13:14:36;;;;;;;3.27;0.80;;;25.70;97.80;;;;;;5029334;28;20522;-81
2022/05/22 13:17:05;;;;;;;1.00;0.90;;;25.70;96.00;;;;;;5028215;28;20537;-80
2022/05/22 13:19:33;;;;;;;1.50;0.90;;;25.70;98.10;;;;;;5015290;28;20463;-81
2022/05/22 13:22:12;;;;;;;1.00;0.90;;;25.70;97.50;;;;;;5012833;28;20605;-81
2022/05/22 13:24:51;;;;;;;0.70;0.70;;;25.80;97.70;;;;;;5017245;28;20470;-81
2022/05/22 13:27:25;;;;;;;1.63;0.90;;;25.80;97.60;;;;;;5018285;28;20469;-80